createdAt,value
2023-01-18T00:00:35.357Z,4.43
2023-01-18T00:03:02.141Z,4.57
2023-01-18T00:05:29.279Z,8.63
2023-01-18T00:07:56.244Z,8.65
2023-01-18T00:10:23.756Z,8.48
2023-01-18T00:12:50.703Z,6.25
2023-01-18T00:15:17.558Z,4.18
2023-01-18T00:17:53.415Z,6.88
2023-01-18T00:20:23.424Z,9.90
2023-01-18T00:22:51.417Z,7.28
2023-01-18T00:25:23.331Z,10.93
2023-01-18T00:27:52.988Z,10.15
2023-01-18T00:30:23.291Z,5.82
2023-01-18T00:32:54.200Z,8.68
2023-01-18T00:35:24.340Z,7.65
2023-01-18T00:37:52.739Z,6.55
2023-01-18T00:40:23.086Z,6.18
2023-01-18T00:43:22.771Z,6.13
2023-01-18T00:45:49.797Z,6.07
2023-01-18T00:48:16.585Z,4.63
2023-01-18T00:50:44.588Z,7.63
2023-01-18T00:53:11.287Z,6.97
2023-01-18T00:55:38.480Z,9.88
2023-01-18T00:58:05.330Z,5.43
2023-01-18T01:00:32.887Z,8.35
2023-01-18T01:03:00.562Z,12.75
2023-01-18T01:05:47.173Z,6.55
2023-01-18T01:08:19.026Z,6.10
2023-01-18T01:10:47.910Z,7.97
2023-01-18T01:13:35.381Z,8.10
2023-01-18T01:16:25.993Z,13.73
2023-01-18T01:19:12.059Z,4.22
2023-01-18T01:21:57.971Z,5.18
2023-01-18T01:24:43.085Z,5.60
2023-01-18T01:27:11.363Z,5.55
2023-01-18T01:29:38.751Z,6.65
2023-01-18T01:32:06.215Z,6.28
2023-01-18T01:34:33.592Z,3.70
2023-01-18T01:37:00.675Z,5.18
2023-01-18T01:39:27.463Z,4.57
2023-01-18T01:41:54.564Z,8.23
2023-01-18T01:44:21.290Z,3.97
2023-01-18T01:46:56.794Z,3.17
2023-01-18T01:49:32.974Z,7.47
2023-01-18T01:52:07.561Z,2.75
2023-01-18T01:55:02.967Z,2.60
2023-01-18T01:57:44.788Z,5.18
2023-01-18T02:00:14.862Z,4.18
2023-01-18T02:02:44.397Z,4.28
2023-01-18T02:05:13.903Z,6.70
2023-01-18T02:07:40.951Z,4.22
2023-01-18T02:10:08.198Z,3.35
2023-01-18T02:12:37.026Z,5.32
2023-01-18T02:15:04.580Z,2.92
2023-01-18T02:17:49.708Z,6.47
2023-01-18T02:20:37.961Z,5.53
2023-01-18T02:23:23.254Z,4.63
2023-01-18T02:26:07.948Z,3.65
2023-01-18T02:28:37.692Z,4.75
2023-01-18T02:31:10.478Z,6.18
2023-01-18T02:33:44.048Z,4.43
2023-01-18T02:36:16.480Z,5.30
2023-01-18T02:38:45.888Z,5.55
2023-01-18T02:42:01.110Z,4.60
2023-01-18T02:44:53.411Z,5.32
2023-01-18T02:47:21.183Z,7.05
2023-01-18T02:49:47.883Z,5.00
2023-01-18T02:52:47.294Z,5.13
2023-01-18T02:55:19.876Z,4.38
2023-01-18T02:57:47.825Z,4.80
2023-01-18T03:00:19.121Z,11.95
2023-01-18T03:02:49.404Z,6.03
2023-01-18T03:05:17.749Z,7.25
2023-01-18T03:07:59.648Z,7.00
2023-01-18T03:10:31.675Z,5.07
2023-01-18T03:13:10.109Z,4.88
2023-01-18T03:15:42.952Z,4.65
2023-01-18T03:19:00.561Z,3.42
2023-01-18T03:21:30.348Z,4.00
2023-01-18T03:24:02.568Z,8.55
2023-01-18T03:26:30.691Z,10.23
2023-01-18T03:29:19.612Z,8.10
2023-01-18T03:32:23.567Z,5.63
2023-01-18T03:35:08.146Z,5.40
2023-01-18T03:37:41.256Z,9.95
2023-01-18T03:40:10.411Z,6.65
2023-01-18T03:42:50.019Z,8.25
2023-01-18T03:45:25.164Z,8.63
2023-01-18T03:47:52.176Z,7.97
2023-01-18T03:50:24.217Z,7.03
2023-01-18T03:52:58.074Z,6.28
2023-01-18T03:55:34.772Z,10.50
2023-01-18T03:58:09.574Z,6.82
2023-01-18T04:00:38.469Z,6.10
2023-01-18T04:03:05.734Z,7.35
2023-01-18T04:05:34.075Z,6.07
2023-01-18T04:08:00.825Z,9.73
2023-01-18T04:10:27.757Z,9.45
2023-01-18T04:12:54.526Z,6.93
2023-01-18T04:15:21.284Z,6.75
2023-01-18T04:17:53.193Z,10.40
2023-01-18T04:20:20.120Z,5.60
2023-01-18T04:22:52.174Z,7.82
2023-01-18T04:25:19.587Z,18.17
2023-01-18T04:27:46.468Z,6.95
2023-01-18T04:30:13.659Z,6.35
2023-01-18T04:32:42.926Z,5.22
2023-01-18T04:35:11.880Z,7.18
2023-01-18T04:37:39.099Z,7.35
2023-01-18T04:40:06.787Z,4.25
2023-01-18T04:42:33.695Z,8.20
2023-01-18T04:45:00.433Z,5.55
2023-01-18T04:47:29.393Z,6.03
2023-01-18T04:49:57.605Z,7.90
2023-01-18T04:52:25.322Z,9.98
2023-01-18T04:54:52.040Z,5.85
2023-01-18T04:57:18.794Z,2.53
2023-01-18T04:59:46.118Z,5.65
2023-01-18T05:02:15.399Z,4.38
2023-01-18T05:04:43.615Z,5.57
2023-01-18T05:07:11.694Z,5.38
2023-01-18T05:09:38.392Z,8.40
2023-01-18T05:12:05.329Z,6.03
2023-01-18T05:14:32.032Z,7.68
2023-01-18T05:16:58.774Z,4.22
2023-01-18T05:19:30.082Z,8.00
2023-01-18T05:21:58.689Z,7.75
2023-01-18T05:24:28.223Z,4.15
2023-01-18T05:26:56.316Z,7.40
2023-01-18T05:29:23.010Z,5.72
2023-01-18T05:31:49.829Z,5.57
2023-01-18T05:34:16.653Z,7.25
2023-01-18T05:36:43.423Z,7.57
2023-01-18T05:39:10.168Z,8.38
2023-01-18T05:41:36.992Z,9.15
2023-01-18T05:44:03.905Z,8.27
2023-01-18T05:46:30.708Z,4.18
2023-01-18T05:48:58.958Z,5.45
2023-01-18T05:51:25.857Z,8.88
2023-01-18T05:53:52.643Z,7.70
2023-01-18T05:56:19.421Z,5.70
2023-01-18T05:58:46.356Z,3.00
2023-01-18T06:01:13.787Z,8.60
2023-01-18T06:03:40.715Z,8.90
2023-01-18T06:06:07.630Z,8.88
2023-01-18T06:08:34.923Z,8.45
2023-01-18T06:11:02.074Z,6.90
2023-01-18T06:13:31.408Z,6.47
2023-01-18T06:15:59.470Z,6.80
2023-01-18T06:18:28.178Z,8.65
2023-01-18T06:20:59.073Z,4.05
2023-01-18T06:23:28.059Z,10.10
2023-01-18T06:25:54.801Z,11.40
2023-01-18T06:28:22.682Z,7.05
2023-01-18T06:30:52.850Z,7.78
2023-01-18T06:33:19.818Z,5.90
2023-01-18T06:35:46.499Z,4.85
2023-01-18T06:38:14.190Z,10.05
2023-01-18T06:40:41.104Z,7.30
2023-01-18T06:43:10.243Z,8.40
2023-01-18T06:45:37.198Z,7.72
2023-01-18T06:48:04.250Z,10.55
2023-01-18T06:50:37.025Z,7.57
2023-01-18T06:53:03.877Z,8.00
2023-01-18T06:55:30.656Z,6.68
2023-01-18T06:57:57.415Z,6.60
2023-01-18T07:00:24.547Z,7.68
2023-01-18T07:02:53.093Z,4.55
2023-01-18T07:05:20.206Z,6.55
2023-01-18T07:07:47.014Z,6.50
2023-01-18T07:10:16.595Z,5.18
2023-01-18T07:12:47.487Z,7.85
2023-01-18T07:15:21.670Z,4.22
2023-01-18T07:17:50.585Z,4.97
2023-01-18T07:20:17.632Z,6.22
2023-01-18T07:22:44.542Z,11.48
2023-01-18T07:25:14.065Z,20.52
2023-01-18T07:27:43.273Z,25.00
2023-01-18T07:30:14.508Z,15.48
2023-01-18T07:32:48.679Z,12.57
2023-01-18T07:35:17.434Z,8.38
2023-01-18T07:37:49.622Z,9.20
2023-01-18T07:40:16.750Z,4.55
2023-01-18T07:42:43.543Z,8.20
2023-01-18T07:45:11.647Z,8.95
2023-01-18T07:47:39.749Z,4.15
2023-01-18T07:50:07.048Z,10.15
2023-01-18T07:52:33.766Z,4.40
2023-01-18T07:55:00.559Z,9.07
2023-01-18T07:57:27.302Z,6.68
2023-01-18T07:59:54.265Z,10.82
2023-01-18T08:02:21.117Z,6.90
2023-01-18T08:04:50.063Z,8.27
2023-01-18T08:07:17.922Z,7.22
2023-01-18T08:09:44.687Z,8.25
2023-01-18T08:12:18.102Z,9.70
2023-01-18T08:14:46.091Z,5.25
2023-01-18T08:17:12.843Z,7.45
2023-01-18T08:19:39.778Z,14.98
2023-01-18T08:22:07.925Z,12.95
2023-01-18T08:24:34.754Z,14.43
2023-01-18T08:27:01.476Z,5.07
2023-01-18T08:29:28.260Z,8.02
2023-01-18T08:31:55.549Z,84.63
2023-01-18T08:34:22.324Z,129.52
2023-01-18T08:36:51.089Z,100.38
2023-01-18T08:39:17.959Z,182.75
2023-01-18T08:41:46.734Z,169.60
2023-01-18T08:44:13.800Z,144.27
2023-01-18T08:46:40.783Z,162.02
2023-01-18T08:49:07.821Z,142.80
2023-01-18T08:51:34.556Z,99.45
2023-01-18T08:54:01.518Z,81.55
2023-01-18T08:56:28.653Z,50.72
2023-01-18T08:58:56.065Z,26.52
2023-01-18T09:01:23.684Z,17.65
2023-01-18T09:03:53.395Z,12.18
2023-01-18T09:06:20.276Z,10.50
2023-01-18T09:08:50.450Z,8.82
2023-01-18T09:11:18.583Z,9.93
2023-01-18T09:13:59.890Z,7.25
2023-01-18T09:16:28.312Z,6.07
2023-01-18T09:18:56.365Z,9.48
2023-01-18T09:21:23.931Z,9.57
2023-01-18T09:23:51.098Z,8.70
2023-01-18T09:26:20.649Z,10.23
2023-01-18T09:28:52.535Z,8.10
2023-01-18T09:31:22.002Z,9.93
2023-01-18T09:33:53.645Z,5.03
2023-01-18T09:36:26.425Z,11.68
2023-01-18T09:38:55.150Z,9.52
2023-01-18T09:41:30.248Z,5.55
2023-01-18T09:44:03.023Z,4.97
2023-01-18T09:46:36.602Z,6.47
2023-01-18T09:49:07.043Z,4.78
2023-01-18T09:51:41.046Z,7.10
2023-01-18T09:54:10.662Z,4.07
2023-01-18T09:57:01.537Z,3.97
2023-01-18T09:59:43.374Z,5.28
2023-01-18T10:02:23.945Z,4.85
2023-01-18T10:05:04.361Z,3.75
2023-01-18T10:07:35.173Z,2.42
2023-01-18T10:10:03.811Z,10.65
2023-01-18T10:12:44.072Z,19.13
2023-01-18T10:15:23.309Z,8.18
2023-01-18T10:17:53.700Z,6.28
2023-01-18T10:20:36.873Z,5.35
2023-01-18T10:23:32.101Z,5.32
2023-01-18T10:26:21.176Z,5.80
2023-01-18T10:29:12.591Z,6.65
2023-01-18T10:31:39.563Z,4.75
2023-01-18T10:34:22.322Z,7.50
2023-01-18T10:37:02.007Z,9.27
2023-01-18T10:39:28.811Z,4.68
2023-01-18T10:42:00.962Z,8.15
2023-01-18T10:44:29.397Z,7.63
2023-01-18T10:47:01.175Z,10.35
2023-01-18T10:49:40.886Z,12.32
2023-01-18T10:52:28.030Z,4.93
2023-01-18T10:55:03.262Z,4.70
2023-01-18T10:57:34.672Z,3.22
2023-01-18T11:00:02.325Z,6.97
2023-01-18T11:02:35.086Z,5.88
2023-01-18T11:05:16.082Z,8.13
2023-01-18T11:07:42.953Z,10.60
2023-01-18T11:10:24.980Z,6.65
2023-01-18T11:12:54.299Z,7.15
2023-01-18T11:15:28.460Z,11.73
2023-01-18T11:17:58.489Z,8.95
2023-01-18T11:20:35.169Z,6.20
2023-01-18T11:23:04.054Z,3.75
2023-01-18T11:25:40.467Z,7.47
2023-01-18T11:28:23.359Z,5.97
2023-01-18T11:30:54.470Z,7.00
2023-01-18T11:33:24.117Z,2.40
2023-01-18T11:35:56.400Z,1.83
2023-01-18T11:38:31.661Z,5.93
2023-01-18T11:41:12.542Z,8.07
2023-01-18T11:43:42.614Z,11.85
2023-01-18T11:46:30.058Z,5.65
2023-01-18T11:49:12.344Z,9.25
2023-01-18T11:51:54.706Z,3.55
2023-01-18T11:54:29.252Z,3.45
2023-01-18T11:57:03.004Z,3.70
2023-01-18T11:59:37.637Z,12.63
2023-01-18T12:02:58.861Z,5.07
2023-01-18T12:05:28.907Z,4.22
2023-01-18T12:07:58.807Z,5.45
2023-01-18T12:10:30.707Z,3.83
2023-01-18T12:13:15.994Z,4.15
2023-01-18T12:16:08.203Z,4.57
2023-01-18T12:18:59.392Z,5.03
2023-01-18T12:21:33.829Z,2.72
2023-01-18T12:24:19.116Z,4.63
2023-01-18T12:26:56.323Z,5.47
2023-01-18T12:32:17.374Z,5.68
2023-01-18T12:34:47.122Z,6.85
2023-01-18T12:37:49.424Z,6.32
2023-01-18T12:40:36.153Z,5.18
2023-01-18T12:43:19.103Z,2.92
2023-01-18T12:45:56.130Z,3.95
2023-01-18T12:48:30.048Z,5.03
2023-01-18T12:50:58.530Z,5.57
2023-01-18T12:53:44.634Z,3.50
2023-01-18T12:56:27.744Z,7.20
2023-01-18T12:58:58.042Z,5.93
2023-01-18T13:01:30.261Z,3.58
2023-01-18T13:04:07.352Z,3.72
2023-01-18T13:06:37.219Z,5.28
2023-01-18T13:09:15.693Z,4.78
2023-01-18T13:11:44.186Z,6.50
2023-01-18T13:14:19.148Z,7.90
2023-01-18T13:17:00.742Z,5.45
2023-01-18T13:19:41.059Z,5.93
2023-01-18T13:22:35.272Z,6.75
2023-01-18T13:25:20.200Z,3.75
2023-01-18T13:28:12.314Z,5.30
2023-01-18T13:30:56.645Z,4.07
2023-01-18T13:33:29.318Z,4.57
2023-01-18T13:36:17.393Z,7.45
2023-01-18T13:38:59.228Z,5.05
2023-01-18T13:41:29.342Z,4.43
2023-01-18T13:43:58.923Z,6.97
2023-01-18T13:46:26.250Z,3.30
2023-01-18T13:48:58.419Z,2.53
2023-01-18T13:51:40.306Z,4.20
2023-01-18T13:54:08.377Z,3.63
2023-01-18T13:56:39.637Z,3.35
2023-01-18T13:59:12.361Z,4.47
2023-01-18T14:01:44.118Z,4.55
2023-01-18T14:04:17.037Z,2.95
2023-01-18T14:06:45.580Z,4.05
2023-01-18T14:09:15.109Z,4.90
2023-01-18T14:11:54.081Z,4.55
2023-01-18T14:14:20.922Z,5.18
2023-01-18T14:16:59.221Z,3.00
2023-01-18T14:19:28.451Z,3.85
2023-01-18T14:22:01.083Z,4.88
2023-01-18T14:24:41.233Z,5.93
2023-01-18T14:27:16.485Z,2.10
2023-01-18T14:29:58.901Z,3.35
2023-01-18T14:32:34.055Z,4.05
2023-01-18T14:35:04.391Z,4.70
2023-01-18T14:37:34.221Z,5.32
2023-01-18T14:40:22.907Z,4.03
2023-01-18T14:42:52.932Z,6.72
2023-01-18T14:45:27.582Z,8.32
2023-01-18T14:47:58.179Z,3.95
2023-01-18T14:50:27.409Z,5.72
2023-01-18T14:52:54.502Z,5.85
2023-01-18T14:55:31.719Z,5.68
2023-01-18T15:00:30.365Z,6.03
2023-01-18T15:02:57.806Z,5.85
2023-01-18T15:05:30.089Z,5.68
2023-01-18T15:07:58.446Z,8.75
2023-01-18T15:10:26.206Z,5.18
2023-01-18T15:12:58.621Z,7.68
2023-01-18T15:15:33.852Z,9.40
2023-01-18T15:18:06.489Z,9.95
2023-01-18T15:20:33.973Z,6.55
2023-01-18T15:23:01.397Z,6.25
2023-01-18T15:25:32.616Z,6.60
2023-01-18T15:31:13.085Z,7.65
2023-01-18T15:33:40.756Z,8.63
2023-01-18T15:36:09.961Z,9.60
2023-01-18T15:38:37.315Z,13.10
2023-01-18T15:41:11.466Z,9.02
2023-01-18T15:43:43.812Z,8.18
2023-01-18T15:46:16.365Z,9.05
2023-01-18T15:49:13.039Z,8.10
2023-01-18T15:51:52.913Z,6.70
2023-01-18T15:54:23.029Z,9.65
2023-01-18T15:56:49.985Z,5.53
2023-01-18T15:59:22.955Z,7.00
2023-01-18T16:02:14.971Z,7.45
2023-01-18T16:04:41.945Z,8.95
2023-01-18T16:07:30.231Z,8.48
2023-01-18T16:10:17.296Z,7.93
2023-01-18T16:12:44.746Z,10.00
2023-01-18T16:15:31.377Z,7.05
2023-01-18T16:18:06.875Z,4.40
2023-01-18T16:20:35.873Z,8.35
2023-01-18T16:23:17.035Z,11.32
2023-01-18T16:25:49.228Z,8.25
2023-01-18T16:28:22.217Z,7.43
2023-01-18T16:30:50.863Z,8.55
2023-01-18T16:33:20.895Z,6.63
2023-01-18T16:35:51.102Z,8.23
2023-01-18T16:38:20.349Z,7.22
2023-01-18T16:40:49.889Z,5.82
2023-01-18T16:43:26.736Z,5.68
2023-01-18T16:45:56.513Z,5.90
2023-01-18T16:48:29.206Z,7.75
2023-01-18T16:50:59.454Z,5.57
2023-01-18T16:53:26.498Z,5.07
2023-01-18T16:55:53.414Z,5.88
2023-01-18T16:58:21.363Z,5.25
2023-01-18T17:00:59.017Z,5.80
2023-01-18T17:03:27.722Z,7.60
2023-01-18T17:05:55.497Z,10.60
2023-01-18T17:08:22.419Z,27.65
2023-01-18T17:10:51.337Z,19.08
2023-01-18T17:13:18.671Z,21.33
2023-01-18T17:15:45.729Z,38.97
2023-01-18T17:18:25.805Z,41.63
2023-01-18T17:20:53.966Z,43.05
2023-01-18T17:23:21.779Z,51.60
2023-01-18T17:25:48.761Z,56.40
2023-01-18T17:28:17.921Z,56.13
2023-01-18T17:30:48.399Z,42.05
2023-01-18T17:33:21.688Z,24.52
2023-01-18T17:35:50.528Z,27.27
2023-01-18T17:38:24.368Z,35.90
2023-01-18T17:40:52.611Z,33.10
2023-01-18T17:43:33.019Z,32.03
2023-01-18T17:46:05.442Z,35.90
2023-01-18T17:48:32.437Z,42.33
2023-01-18T17:50:59.287Z,30.90
2023-01-18T17:53:26.370Z,31.80
2023-01-18T17:55:53.420Z,20.27
2023-01-18T17:58:20.341Z,21.42
2023-01-18T18:00:47.434Z,19.33
2023-01-18T18:03:14.455Z,19.80
2023-01-18T18:05:41.415Z,24.92
2023-01-18T18:08:09.068Z,23.65
2023-01-18T18:10:35.871Z,17.52
2023-01-18T18:13:03.219Z,21.33
2023-01-18T18:15:30.210Z,25.45
2023-01-18T18:17:57.031Z,18.02
2023-01-18T18:20:24.437Z,23.02
2023-01-18T18:22:51.215Z,25.73
2023-01-18T18:25:18.138Z,19.40
2023-01-18T18:27:46.719Z,25.60
2023-01-18T18:30:14.773Z,20.80
2023-01-18T18:32:44.152Z,21.45
2023-01-18T18:35:26.742Z,20.73
2023-01-18T18:37:55.745Z,22.52
2023-01-18T18:40:23.852Z,29.33
2023-01-18T18:43:02.044Z,24.17
2023-01-18T18:45:31.676Z,25.45
2023-01-18T18:47:58.701Z,22.33
2023-01-18T18:50:25.597Z,29.88
2023-01-18T18:52:52.784Z,27.83
2023-01-18T18:55:19.713Z,37.53
2023-01-18T18:57:46.594Z,20.25
2023-01-18T19:00:14.061Z,17.13
2023-01-18T19:02:41.054Z,17.23
2023-01-18T19:05:08.608Z,14.15
2023-01-18T19:07:35.914Z,10.70
2023-01-18T19:10:10.824Z,7.07
2023-01-18T19:12:37.871Z,12.50
2023-01-18T19:15:05.235Z,10.80
2023-01-18T19:17:32.655Z,8.38
2023-01-18T19:19:59.704Z,9.82
2023-01-18T19:22:26.819Z,11.88
2023-01-18T19:24:53.853Z,14.20
2023-01-18T19:27:24.725Z,13.63
2023-01-18T19:29:53.256Z,21.15
2023-01-18T19:32:20.264Z,20.38
2023-01-18T19:34:49.257Z,32.30
2023-01-18T19:37:16.227Z,36.95
2023-01-18T19:39:43.056Z,43.13
2023-01-18T19:42:10.047Z,39.80
2023-01-18T19:44:37.029Z,26.83
2023-01-18T19:47:04.121Z,21.25
2023-01-18T19:49:31.398Z,12.07
2023-01-18T19:51:58.406Z,7.40
2023-01-18T19:54:25.337Z,9.63
2023-01-18T19:56:53.221Z,10.70
2023-01-18T19:59:20.130Z,9.98
2023-01-18T20:01:47.200Z,9.48
2023-01-18T20:04:14.417Z,16.00
2023-01-18T20:06:45.127Z,17.48
2023-01-18T20:09:19.884Z,20.50
2023-01-18T20:11:49.403Z,13.50
2023-01-18T20:14:18.529Z,10.35
2023-01-18T20:16:46.284Z,12.25
2023-01-18T20:19:17.827Z,8.55
2023-01-18T20:21:45.524Z,9.50
2023-01-18T20:24:13.172Z,10.63
2023-01-18T20:26:41.953Z,11.57
2023-01-18T20:29:10.052Z,7.18
2023-01-18T20:31:39.029Z,4.60
2023-01-18T20:34:06.880Z,3.75
2023-01-18T20:36:37.671Z,7.50
2023-01-18T20:39:06.898Z,8.50
2023-01-18T20:41:34.422Z,11.55
2023-01-18T20:44:01.437Z,9.27
2023-01-18T20:46:28.524Z,8.27
2023-01-18T20:48:55.440Z,5.32
2023-01-18T20:51:22.358Z,7.60
2023-01-18T20:53:49.769Z,6.93
2023-01-18T20:56:28.731Z,3.75
2023-01-18T20:58:56.335Z,9.73
2023-01-18T21:01:23.615Z,5.38
2023-01-18T21:03:55.779Z,5.72
2023-01-18T21:06:22.954Z,6.88
2023-01-18T21:08:54.359Z,21.70
2023-01-18T21:11:23.414Z,18.25
2023-01-18T21:13:50.937Z,9.10
2023-01-18T21:16:18.776Z,8.82
2023-01-18T21:18:45.957Z,6.97
2023-01-18T21:21:13.299Z,9.57
2023-01-18T21:23:40.501Z,10.95
2023-01-18T21:26:12.761Z,8.73
2023-01-18T21:28:40.800Z,11.70
2023-01-18T21:31:08.152Z,7.00
2023-01-18T21:33:35.454Z,11.23
2023-01-18T21:36:07.946Z,12.65
2023-01-18T21:38:36.040Z,9.00
2023-01-18T21:41:21.985Z,12.02
2023-01-18T21:44:08.729Z,5.45
2023-01-18T21:46:39.613Z,7.60
2023-01-18T21:49:07.170Z,7.43
2023-01-18T21:51:53.324Z,3.70
2023-01-18T21:54:22.601Z,3.72
2023-01-18T21:56:51.129Z,3.65
2023-01-18T21:59:18.203Z,3.50
2023-01-18T22:01:47.868Z,3.33
2023-01-18T22:04:35.011Z,1.73
2023-01-18T22:07:04.533Z,3.00
2023-01-18T22:09:36.538Z,2.80
2023-01-18T22:12:03.958Z,2.60
2023-01-18T22:14:31.237Z,3.22
2023-01-18T22:16:58.765Z,4.68
2023-01-18T22:19:25.865Z,2.72
2023-01-18T22:21:52.913Z,3.38
2023-01-18T22:24:22.816Z,2.63
2023-01-18T22:26:49.780Z,3.60
2023-01-18T22:29:17.042Z,2.95
2023-01-18T22:31:47.214Z,2.03
2023-01-18T22:34:22.358Z,3.63
2023-01-18T22:36:50.049Z,3.97
2023-01-18T22:39:17.641Z,4.18
2023-01-18T22:41:44.980Z,5.15
2023-01-18T22:44:16.410Z,5.68
2023-01-18T22:46:44.698Z,6.38
2023-01-18T22:49:11.528Z,4.20
2023-01-18T22:51:38.412Z,3.65
2023-01-18T22:54:05.834Z,4.50
2023-01-18T22:56:33.079Z,8.30
2023-01-18T22:59:00.594Z,5.03
2023-01-18T23:01:32.391Z,4.60
2023-01-18T23:04:04.380Z,2.78
2023-01-18T23:06:42.456Z,4.30
2023-01-18T23:09:10.861Z,5.32
2023-01-18T23:11:40.039Z,3.30
2023-01-18T23:14:26.486Z,2.88
2023-01-18T23:17:12.053Z,3.50
2023-01-18T23:19:38.938Z,3.95
2023-01-18T23:22:07.553Z,4.47
2023-01-18T23:24:36.096Z,4.72
2023-01-18T23:27:04.315Z,3.63
2023-01-18T23:29:31.157Z,3.55
2023-01-18T23:31:58.415Z,2.08
2023-01-18T23:34:26.017Z,4.20
2023-01-18T23:36:53.291Z,3.83
2023-01-18T23:39:38.667Z,1.92
2023-01-18T23:42:24.130Z,4.97
2023-01-18T23:45:09.644Z,4.15
2023-01-18T23:47:55.053Z,1.95
2023-01-18T23:50:41.221Z,3.10
2023-01-18T23:53:30.914Z,3.90
2023-01-18T23:56:02.646Z,6.30
2023-01-18T23:58:29.666Z,7.78
